Time;durP1;ratioP1;P1;durP2;ratioP2;P2;SDS_P1;SDS_P2;PMS_P1;PMS_P2;Temp;Humidity;BMP_temperature;BMP_pressure;BME280_temperature;BME280_humidity;BME280_pressure;Samples;Min_cycle;Max_cycle;Signal;HPM_P1;HPM_P2
2022/01/17 00:01:23;;;;;;;49.20;21.20;;;;;-3.60;97896.20;;;;111783;1241;41148;-66
2022/01/17 00:03:53;;;;;;;46.70;21.30;;;;;-3.60;97895.80;;;;111800;1243;41875;-67
2022/01/17 00:06:23;;;;;;;46.30;20.50;;;;;-3.60;97895.00;;;;111778;1242;41140;-69
2022/01/17 00:08:52;;;;;;;52.30;22.50;;;;;-3.60;97903.60;;;;111758;1243;41127;-62
2022/01/17 00:11:22;;;;;;;51.70;21.40;;;;;-3.60;97902.80;;;;111791;1244;41139;-65
2022/01/17 00:13:51;;;;;;;42.50;18.90;;;;;-3.62;97900.00;;;;111558;1244;41186;-71
2022/01/17 00:16:28;;;;;;;42.80;21.00;;;;;-3.68;97893.80;;;;111737;1244;41145;-63
2022/01/17 00:19:31;;;;;;;48.80;21.60;;;;;-3.70;97890.40;;;;111501;1244;41610;-73
2022/01/17 00:21:57;;;;;;;41.60;19.00;;;;;-3.68;97893.80;;;;111531;1244;41597;-74
2022/01/17 00:24:26;;;;;;;42.40;19.20;;;;;-3.70;97888.60;;;;111506;1244;41137;-74
2022/01/17 00:26:56;;;;;;;42.50;18.60;;;;;-3.70;97893.60;;;;111475;1244;41200;-74
2022/01/17 00:29:27;;;;;;;47.00;20.40;;;;;-3.70;97889.80;;;;111400;1244;41605;-70
2022/01/17 00:31:57;;;;;;;43.00;19.40;;;;;-3.70;97894.60;;;;111759;1243;41143;-77
2022/01/17 00:34:27;;;;;;;42.40;20.60;;;;;-3.80;97900.00;;;;111709;1243;41129;-74
2022/01/17 00:36:57;;;;;;;49.30;21.60;;;;;-3.80;97900.80;;;;111682;1242;41291;-67
2022/01/17 00:39:27;;;;;;;48.80;20.80;;;;;-3.80;97897.20;;;;111788;1244;41709;-65
2022/01/17 00:41:56;;;;;;;47.80;21.60;;;;;-3.88;97900.00;;;;111479;1245;42236;-68
2022/01/17 00:44:26;;;;;;;51.60;22.00;;;;;-3.90;97898.20;;;;111792;1242;41155;-65
2022/01/17 00:46:56;;;;;;;47.20;20.90;;;;;-3.90;97901.40;;;;111502;1244;41139;-63
2022/01/17 00:49:26;;;;;;;52.70;22.50;;;;;-4.00;97894.20;;;;111788;1243;42567;-65
2022/01/17 00:51:56;;;;;;;58.90;25.70;;;;;-4.00;97898.20;;;;111531;1244;42358;-70
2022/01/17 00:54:25;;;;;;;66.60;28.30;;;;;-4.02;97882.80;;;;111555;1244;41834;-61
2022/01/17 00:56:55;;;;;;;65.30;27.60;;;;;-4.10;97877.00;;;;111744;1243;42415;-71
2022/01/17 00:59:24;;;;;;;50.60;22.90;;;;;-4.10;97880.00;;;;111781;1243;41119;-69
2022/01/17 01:01:54;;;;;;;50.30;23.20;;;;;-4.20;97873.40;;;;111751;1244;41486;-73
2022/01/17 01:04:24;;;;;;;52.70;22.80;;;;;-4.20;97883.80;;;;111723;1243;41623;-66
2022/01/17 01:06:54;;;;;;;64.60;27.50;;;;;-4.24;97877.40;;;;111768;1243;41122;-66
2022/01/17 01:09:26;;;;;;;57.20;25.50;;;;;-4.30;97868.20;;;;111546;1243;41149;-68
2022/01/17 01:11:56;;;;;;;65.00;25.30;;;;;-4.30;97860.40;;;;111775;1244;41126;-70
2022/01/17 01:14:26;;;;;;;58.80;25.50;;;;;-4.36;97852.20;;;;111836;1241;42197;-64
2022/01/17 01:16:57;;;;;;;56.80;25.50;;;;;-4.38;97858.40;;;;111812;1244;41143;-63
2022/01/17 01:19:28;;;;;;;;;;;;;-4.40;97863.60;;;;111826;1241;41251;-64
2022/01/17 01:30:11;;;;;;;67.00;30.50;;;;;-4.50;97848.40;;;;111809;1241;41725;-73
2022/01/17 01:32:49;;;;;;;59.40;25.00;;;;;-4.60;97849.80;;;;111818;1244;41130;-67
2022/01/17 01:35:22;;;;;;;48.70;23.10;;;;;-4.70;97829.00;;;;111737;1243;41949;-67
2022/01/17 01:37:52;;;;;;;41.60;19.20;;;;;-4.70;97824.80;;;;111817;1244;41126;-61
2022/01/17 01:40:23;;;;;;;36.40;16.60;;;;;-4.80;97820.40;;;;111565;1243;41140;-64
2022/01/17 01:42:54;;;;;;;37.30;16.50;;;;;-4.80;97807.60;;;;111822;1244;42501;-63
2022/01/17 01:45:24;;;;;;;41.60;18.90;;;;;-4.88;97810.00;;;;111860;1241;41706;-60
2022/01/17 01:47:54;;;;;;;35.20;17.10;;;;;-4.90;97809.20;;;;111823;1241;41797;-65
2022/01/17 01:50:24;;;;;;;35.70;16.60;;;;;-4.90;97801.60;;;;111863;1241;41678;-72
2022/01/17 01:52:53;;;;;;;39.10;16.80;;;;;-4.90;97802.60;;;;111786;1244;41245;-66
2022/01/17 01:55:23;;;;;;;39.30;17.30;;;;;-4.90;97799.00;;;;111863;1244;41257;-68
2022/01/17 01:57:54;;;;;;;44.50;19.80;;;;;-4.90;97792.60;;;;111822;1241;41929;-66
2022/01/17 02:00:24;;;;;;;46.10;18.90;;;;;-4.90;97802.00;;;;111828;1241;41377;-66
2022/01/17 02:02:54;;;;;;;38.50;17.10;;;;;-4.90;97798.40;;;;111616;1244;41257;-62
2022/01/17 02:05:25;;;;;;;40.80;17.20;;;;;-4.90;97804.80;;;;111760;1243;41354;-64
2022/01/17 02:07:54;;;;;;;;;;;;;-4.90;97790.20;;;;111761;1244;41132;-73
2022/01/17 02:10:25;;;;;;;41.90;18.90;;;;;-4.90;97794.40;;;;111798;1244;42601;-70
2022/01/17 02:12:55;;;;;;;43.70;20.10;;;;;-4.90;97780.40;;;;111798;1243;41140;-74
2022/01/17 02:15:25;;;;;;;50.90;22.10;;;;;-4.90;97783.40;;;;111588;1244;41262;-71
2022/01/17 02:17:57;;;;;;;47.40;20.70;;;;;-4.90;97789.20;;;;111865;1242;41148;-74
2022/01/17 02:23:26;;;;;;;41.80;18.40;;;;;-4.92;97783.60;;;;111489;1243;41152;-70
2022/01/17 02:25:56;;;;;;;38.90;17.80;;;;;-4.90;97776.20;;;;111515;1244;41123;-68
2022/01/17 02:28:26;;;;;;;40.90;18.00;;;;;-4.90;97772.80;;;;111738;1241;42168;-65
2022/01/17 02:30:56;;;;;;;38.40;17.10;;;;;-4.90;97774.80;;;;111871;1243;41251;-69
2022/01/17 02:33:27;;;;;;;36.30;15.50;;;;;-4.90;97776.80;;;;111790;1243;41128;-73
2022/01/17 02:35:59;;;;;;;40.10;18.10;;;;;-4.90;97779.40;;;;111652;1244;41127;-74
2022/01/17 02:38:28;;;;;;;;;;;;;-4.88;97778.00;;;;111742;1244;41143;-73
2022/01/17 02:40:59;;;;;;;44.20;20.20;;;;;-4.90;97778.00;;;;111783;1241;41283;-73
2022/01/17 02:43:31;;;;;;;53.30;24.30;;;;;-4.90;97780.60;;;;111749;1244;41704;-71
2022/01/17 02:48:36;;;;;;;70.00;26.10;;;;;-4.90;97770.80;;;;111483;1244;41163;-72
2022/01/17 02:51:07;;;;;;;60.30;25.50;;;;;-4.90;97771.20;;;;111750;1242;41428;-72
2022/01/17 02:53:40;;;;;;;56.10;25.10;;;;;-4.90;97770.60;;;;111846;1241;41160;-72
2022/01/17 02:56:11;;;;;;;64.10;25.50;;;;;-4.90;97781.80;;;;111607;1244;41149;-69
2022/01/17 02:58:40;;;;;;;51.30;23.40;;;;;-4.90;97782.20;;;;111760;1243;41156;-72
2022/01/17 03:01:19;;;;;;;48.60;22.80;;;;;-4.90;97773.40;;;;111778;1241;41137;-74
2022/01/17 03:03:49;;;;;;;59.00;23.30;;;;;-4.90;97764.80;;;;111788;1244;41147;-77
2022/01/17 03:06:19;;;;;;;64.20;25.50;;;;;-4.90;97750.60;;;;111767;1243;41145;-66
2022/01/17 03:08:50;;;;;;;59.90;25.00;;;;;-4.90;97750.80;;;;111789;1244;41184;-61
2022/01/17 03:11:22;;;;;;;;;;;;;-4.90;97745.80;;;;111842;1241;41967;-61
2022/01/17 03:13:52;;;;;;;53.50;22.40;;;;;-4.90;97754.20;;;;111593;1243;41582;-63
2022/01/17 03:16:35;;;;;;;42.90;20.20;;;;;-4.80;97753.00;;;;111779;1244;41379;-72
2022/01/17 03:19:05;;;;;;;40.00;18.00;;;;;-4.80;97755.40;;;;111864;1244;42328;-63
2022/01/17 03:21:36;;;;;;;53.80;23.30;;;;;-4.72;97743.00;;;;111862;1244;42287;-61
2022/01/17 03:24:07;;;;;;;54.80;22.90;;;;;-4.70;97737.60;;;;111838;1242;41171;-62
2022/01/17 03:26:36;;;;;;;54.20;22.90;;;;;-4.70;97730.40;;;;111132;1246;41142;-64
2022/01/17 03:29:06;;;;;;;53.80;23.40;;;;;-4.70;97736.40;;;;111785;1244;41510;-61
2022/01/17 03:31:36;;;;;;;51.80;22.20;;;;;-4.62;97734.00;;;;111724;1241;41138;-63
2022/01/17 03:34:06;;;;;;;48.40;21.20;;;;;-4.60;97738.00;;;;111832;1242;41246;-72
2022/01/17 03:36:36;;;;;;;48.50;20.80;;;;;-4.60;97740.20;;;;111824;1241;41913;-62
2022/01/17 03:39:06;;;;;;;46.10;19.60;;;;;-4.60;97738.60;;;;111861;1244;41288;-70
2022/01/17 03:41:37;;;;;;;51.50;21.80;;;;;-4.60;97728.60;;;;111762;1244;41166;-73
2022/01/17 03:44:08;;;;;;;56.50;23.70;;;;;-4.60;97724.80;;;;111769;1244;41129;-69
2022/01/17 03:46:39;;;;;;;50.40;23.50;;;;;-4.60;97721.60;;;;111754;1244;41266;-70
2022/01/17 03:49:09;;;;;;;54.20;21.70;;;;;-4.60;97719.00;;;;111876;1241;41523;-66
2022/01/17 03:51:39;;;;;;;55.30;23.20;;;;;-4.60;97716.40;;;;111843;1241;41126;-64
2022/01/17 03:54:08;;;;;;;50.70;22.40;;;;;-4.52;97709.00;;;;111817;1244;41125;-61
2022/01/17 03:56:38;;;;;;;50.90;23.20;;;;;-4.50;97714.20;;;;111865;1243;41250;-63
2022/01/17 03:59:07;;;;;;;50.20;22.70;;;;;-4.50;97710.40;;;;111792;1241;41456;-72
2022/01/17 04:01:37;;;;;;;49.40;24.10;;;;;-4.42;97705.40;;;;111592;1244;41147;-70
2022/01/17 04:04:07;;;;;;;53.10;24.70;;;;;-4.40;97707.60;;;;111846;1241;42365;-65
2022/01/17 04:06:37;;;;;;;42.10;20.10;;;;;-4.50;97700.00;;;;111842;1241;41199;-61
2022/01/17 04:09:08;;;;;;;46.40;20.20;;;;;-4.50;97696.00;;;;111838;1244;41613;-62
2022/01/17 04:11:38;;;;;;;49.00;21.00;;;;;-4.60;97693.20;;;;111524;1244;41493;-70
2022/01/17 04:14:09;;;;;;;45.10;19.50;;;;;-4.60;97693.60;;;;111594;1243;41148;-65
2022/01/17 04:16:39;;;;;;;42.30;18.70;;;;;-4.70;97705.20;;;;111561;1243;41705;-67
2022/01/17 04:19:12;;;;;;;47.10;19.00;;;;;-4.70;97709.00;;;;111446;1245;41371;-67
2022/01/17 04:21:45;;;;;;;42.20;19.10;;;;;-4.80;97710.60;;;;111763;1243;41248;-64
2022/01/17 04:24:15;;;;;;;39.90;18.10;;;;;-4.80;97714.00;;;;111779;1244;41593;-69
2022/01/17 04:26:45;;;;;;;45.90;19.20;;;;;-4.82;97724.20;;;;111763;1244;41759;-71
2022/01/17 04:29:15;;;;;;;40.10;17.30;;;;;-4.80;97731.00;;;;111460;1244;41131;-63
2022/01/17 04:31:45;;;;;;;41.10;16.40;;;;;-4.80;97726.80;;;;111683;1241;41293;-66
2022/01/17 04:34:15;;;;;;;42.10;18.30;;;;;-4.80;97724.40;;;;111536;1243;42072;-62
2022/01/17 04:36:45;;;;;;;37.80;17.50;;;;;-4.72;97736.40;;;;111750;1241;41936;-73
2022/01/17 04:39:17;;;;;;;40.00;18.20;;;;;-4.70;97728.60;;;;111766;1244;41136;-64
2022/01/17 04:41:46;;;;;;;40.60;17.50;;;;;-4.62;97717.60;;;;111758;1242;41139;-74
2022/01/17 04:47:03;;;;;;;52.50;20.50;;;;;-4.50;97715.20;;;;111626;1244;41145;-73
2022/01/17 04:49:33;;;;;;;50.00;22.70;;;;;-4.50;97710.40;;;;111768;1241;41149;-72
2022/01/17 04:52:03;;;;;;;50.20;22.60;;;;;-4.40;97712.60;;;;111671;1244;41140;-70
2022/01/17 04:54:43;;;;;;;53.00;23.20;;;;;-4.40;97714.00;;;;111499;1244;41490;-72
2022/01/17 04:57:13;;;;;;;50.40;21.50;;;;;-4.40;97712.20;;;;111586;1243;41653;-71
2022/01/17 04:59:43;;;;;;;52.00;20.70;;;;;-4.32;97711.00;;;;111592;1244;41625;-68
2022/01/17 05:02:12;;;;;;;43.60;18.10;;;;;-4.30;97703.40;;;;111699;1242;41147;-72
2022/01/17 05:04:45;;;;;;;49.70;21.80;;;;;-4.26;97698.80;;;;111686;1244;41699;-79
2022/01/17 05:07:14;;;;;;;66.40;26.70;;;;;-4.20;97691.60;;;;111762;1244;42247;-77
2022/01/17 05:09:45;;;;;;;60.20;26.70;;;;;-4.20;97696.40;;;;111682;1243;42422;-75
2022/01/17 05:12:15;;;;;;;63.90;25.50;;;;;-4.20;97702.40;;;;111695;1243;41019;-74
2022/01/17 05:14:49;;;;;;;58.10;27.10;;;;;-4.20;97703.00;;;;111803;1242;41773;-71
2022/01/17 05:17:37;;;;;;;49.90;21.50;;;;;-4.14;97703.60;;;;111637;1243;42216;-66
2022/01/17 05:20:08;;;;;;;44.00;19.60;;;;;-4.10;97701.80;;;;111765;1243;41618;-68
2022/01/17 05:22:38;;;;;;;42.80;19.00;;;;;-4.06;97701.80;;;;111498;1244;41583;-72
2022/01/17 05:25:11;;;;;;;44.40;20.60;;;;;-4.00;97689.40;;;;111567;1244;41125;-72
2022/01/17 05:27:40;;;;;;;43.30;19.60;;;;;-4.00;97684.60;;;;111669;1244;42117;-63
2022/01/17 05:30:13;;;;;;;47.30;20.00;;;;;-3.92;97690.40;;;;111522;1244;41232;-64
2022/01/17 05:32:43;;;;;;;47.40;22.20;;;;;-3.90;97682.80;;;;111806;1243;41143;-68
2022/01/17 05:35:13;;;;;;;49.50;19.90;;;;;-3.82;97680.60;;;;111705;1243;41613;-69
2022/01/17 05:37:43;;;;;;;47.60;19.60;;;;;-3.80;97692.20;;;;111525;1244;41190;-67
2022/01/17 05:40:14;;;;;;;48.00;22.10;;;;;-3.72;97683.80;;;;111728;1244;41532;-64
2022/01/17 05:42:43;;;;;;;56.40;25.10;;;;;-3.70;97680.40;;;;111839;1244;41489;-69
2022/01/17 05:45:14;;;;;;;64.70;27.70;;;;;-3.70;97675.40;;;;111662;1242;41241;-62
2022/01/17 05:47:44;;;;;;;64.40;29.10;;;;;-3.70;97679.60;;;;111649;1244;42306;-62
2022/01/17 05:50:14;;;;;;;68.00;29.90;;;;;-3.80;97684.20;;;;111715;1242;41985;-70
2022/01/17 05:52:44;;;;;;;64.80;30.80;;;;;-3.86;97696.60;;;;111766;1244;41137;-63
2022/01/17 05:55:15;;;;;;;59.70;27.40;;;;;-3.90;97696.00;;;;111774;1244;41107;-65
2022/01/17 05:57:45;;;;;;;57.80;25.70;;;;;-4.00;97693.80;;;;111781;1244;41268;-67
2022/01/17 06:00:16;;;;;;;60.60;24.70;;;;;-4.00;97682.40;;;;111456;1244;42130;-64
2022/01/17 06:02:48;;;;;;;53.80;22.90;;;;;-4.00;97676.20;;;;111480;1244;41336;-68
2022/01/17 06:05:17;;;;;;;49.00;23.30;;;;;-4.00;97669.60;;;;111723;1243;41124;-67
2022/01/17 06:07:47;;;;;;;53.00;23.10;;;;;-4.00;97675.20;;;;111743;1243;41197;-72
2022/01/17 06:10:16;;;;;;;49.90;24.70;;;;;-4.06;97677.60;;;;111728;1244;41945;-68
2022/01/17 06:12:45;;;;;;;46.60;22.60;;;;;-4.08;97678.00;;;;111312;1244;41126;-64
2022/01/17 06:15:18;;;;;;;50.70;23.80;;;;;-4.10;97676.00;;;;111887;1244;41164;-69
2022/01/17 06:17:47;;;;;;;49.40;23.80;;;;;-4.02;97674.20;;;;111774;1242;41248;-69
2022/01/17 06:20:16;;;;;;;53.30;21.10;;;;;-4.04;97673.00;;;;111480;1244;41613;-68
2022/01/17 06:22:46;;;;;;;45.70;19.20;;;;;-4.00;97669.40;;;;111746;1241;41157;-76
2022/01/17 06:25:15;;;;;;;43.80;20.20;;;;;-3.92;97679.00;;;;111694;1241;41205;-71
2022/01/17 06:27:45;;;;;;;45.30;20.00;;;;;-3.84;97681.00;;;;111728;1242;41895;-66
2022/01/17 06:30:14;;;;;;;40.90;19.20;;;;;-3.80;97693.60;;;;111799;1242;41255;-65
2022/01/17 06:32:44;;;;;;;42.60;19.10;;;;;-3.70;97680.00;;;;111622;1244;41124;-66
2022/01/17 06:35:14;;;;;;;44.40;18.30;;;;;-3.64;97671.00;;;;111795;1242;41266;-61
2022/01/17 06:37:44;;;;;;;45.50;19.30;;;;;-3.60;97681.40;;;;111821;1241;41126;-63
2022/01/17 06:40:14;;;;;;;50.90;21.00;;;;;-3.50;97681.20;;;;111809;1241;41182;-60
2022/01/17 06:42:43;;;;;;;47.60;20.10;;;;;-3.50;97681.40;;;;111806;1243;41152;-73
2022/01/17 06:45:14;;;;;;;44.70;21.00;;;;;-3.42;97676.20;;;;111788;1242;41329;-63
2022/01/17 06:47:43;;;;;;;;;;;;;-3.40;97677.00;;;;111670;1244;41128;-58
2022/01/17 06:50:13;;;;;;;65.10;26.10;;;;;-3.40;97680.60;;;;111870;1241;42308;-59
2022/01/17 06:52:43;;;;;;;56.30;26.40;;;;;-3.42;97676.20;;;;111692;1243;41159;-59
2022/01/17 06:55:12;;;;;;;48.90;23.40;;;;;-3.40;97677.40;;;;111776;1243;41703;-60
2022/01/17 06:57:41;;;;;;;49.50;22.80;;;;;-3.36;97666.40;;;;111787;1241;41585;-58
2022/01/17 07:00:12;;;;;;;53.50;24.50;;;;;-3.30;97673.20;;;;111838;1241;41176;-57
2022/01/17 07:02:43;;;;;;;49.30;24.10;;;;;-3.24;97671.80;;;;111879;1242;41990;-60
2022/01/17 07:05:13;;;;;;;55.00;23.20;;;;;-3.28;97671.40;;;;111743;1242;41330;-57
2022/01/17 07:07:43;;;;;;;42.70;21.90;;;;;-3.24;97668.00;;;;111739;1241;41455;-57
2022/01/17 07:10:12;;;;;;;52.80;23.70;;;;;-3.20;97656.00;;;;111381;1244;41402;-60
2022/01/17 07:12:42;;;;;;;56.30;26.80;;;;;-3.20;97659.40;;;;111733;1241;41389;-59
2022/01/17 07:15:11;;;;;;;56.50;25.90;;;;;-3.20;97668.80;;;;111585;1242;41149;-58
2022/01/17 07:17:40;;;;;;;55.00;26.00;;;;;-3.30;97673.20;;;;111406;1244;41733;-57
2022/01/17 07:20:10;;;;;;;55.20;25.90;;;;;-3.34;97668.20;;;;111634;1241;41253;-58
2022/01/17 07:22:40;;;;;;;50.50;23.10;;;;;-3.30;97661.00;;;;111439;1244;41281;-60
2022/01/17 07:25:09;;;;;;;59.40;26.90;;;;;-3.30;97650.20;;;;111694;1241;41296;-59
2022/01/17 07:27:40;;;;;;;56.40;25.30;;;;;-3.22;97641.80;;;;111719;1244;41276;-59
2022/01/17 07:30:10;;;;;;;60.80;26.60;;;;;-3.20;97643.40;;;;111676;1243;41786;-61
2022/01/17 07:32:39;;;;;;;63.80;29.10;;;;;-3.28;97641.80;;;;111741;1241;41147;-58
2022/01/17 07:35:09;;;;;;;54.10;26.10;;;;;-3.28;97650.60;;;;111708;1244;41236;-58
2022/01/17 07:37:38;;;;;;;54.40;25.10;;;;;-3.24;97677.40;;;;111708;1243;41197;-59
2022/01/17 07:40:08;;;;;;;54.80;26.10;;;;;-3.20;97704.00;;;;111588;1244;41621;-58
2022/01/17 07:42:37;;;;;;;51.60;24.60;;;;;-3.20;97720.40;;;;111600;1243;41174;-58
2022/01/17 07:45:13;;;;;;;59.90;29.30;;;;;-3.18;97710.80;;;;111683;1242;41566;-58
2022/01/17 07:50:18;;;;;;;62.10;29.60;;;;;-3.26;97710.60;;;;111594;1243;41144;-58
2022/01/17 07:52:47;;;;;;;63.70;29.80;;;;;-3.22;97682.20;;;;111664;1242;41359;-61
2022/01/17 07:55:17;;;;;;;57.40;25.80;;;;;-3.28;97668.60;;;;111599;1243;41163;-60
2022/01/17 07:57:46;;;;;;;62.50;30.00;;;;;-3.20;97653.80;;;;111584;1243;41241;-61
2022/01/17 08:00:22;;;;;;;57.40;27.60;;;;;-3.10;97630.60;;;;111463;1242;41142;-61
2022/01/17 08:02:58;;;;;;;55.60;25.80;;;;;-3.06;97615.60;;;;111805;1241;41182;-58
2022/01/17 08:05:27;;;;;;;56.80;23.90;;;;;-3.00;97618.80;;;;111831;1243;40868;-59
2022/01/17 08:07:56;;;;;;;59.60;26.30;;;;;-2.90;97593.60;;;;111739;1243;41180;-60
2022/01/17 08:10:25;;;;;;;60.90;26.30;;;;;-2.84;97585.60;;;;111446;1244;41198;-60
2022/01/17 08:12:55;;;;;;;52.40;25.50;;;;;-2.80;97585.00;;;;111535;1244;41150;-58
2022/01/17 08:15:25;;;;;;;53.00;24.70;;;;;-2.70;97581.80;;;;111791;1241;41254;-59
2022/01/17 08:17:54;;;;;;;52.50;23.90;;;;;-2.60;97604.40;;;;111788;1241;41169;-59
2022/01/17 08:20:23;;;;;;;53.80;25.40;;;;;-2.50;97644.00;;;;111703;1241;41248;-58
2022/01/17 08:22:52;;;;;;;49.70;23.00;;;;;-2.40;97661.60;;;;111440;1243;41457;-58
2022/01/17 08:25:21;;;;;;;49.10;23.30;;;;;-2.30;97678.20;;;;111833;1241;41380;-59
2022/01/17 08:27:51;;;;;;;44.90;20.80;;;;;-2.20;97709.80;;;;111550;1243;41125;-60
2022/01/17 08:30:20;;;;;;;43.50;21.00;;;;;-2.10;97719.20;;;;111820;1241;41694;-61
2022/01/17 08:33:09;;;;;;;41.30;20.30;;;;;-2.02;97682.80;;;;111740;1243;42360;-58
2022/01/17 08:35:39;;;;;;;44.50;21.00;;;;;-2.00;97683.80;;;;111816;1243;41142;-58
2022/01/17 08:38:08;;;;;;;46.00;21.90;;;;;-2.00;97677.00;;;;111798;1241;41288;-59
2022/01/17 08:40:38;;;;;;;43.90;22.10;;;;;-1.98;97635.20;;;;111782;1241;42357;-58
2022/01/17 08:43:07;;;;;;;45.00;21.70;;;;;-2.00;97633.00;;;;111526;1244;41124;-58
2022/01/17 08:45:37;;;;;;;49.60;23.80;;;;;-2.00;97631.80;;;;111806;1241;41671;-58
2022/01/17 08:48:12;;;;;;;54.70;24.20;;;;;-1.90;97615.60;;;;111777;1241;41985;-57
2022/01/17 08:50:43;;;;;;;50.40;23.40;;;;;-1.90;97613.60;;;;111570;1243;43076;-60
2022/01/17 08:53:13;;;;;;;46.30;21.90;;;;;-1.90;97609.60;;;;111843;1241;42068;-60
2022/01/17 08:55:45;;;;;;;51.80;23.80;;;;;-1.88;97591.00;;;;111839;1244;41139;-58
2022/01/17 08:58:14;;;;;;;50.10;23.50;;;;;-1.80;97592.80;;;;111596;1244;41118;-58
2022/01/17 09:00:44;;;;;;;53.30;24.80;;;;;-1.80;97610.80;;;;111458;1243;369191;-58
2022/01/17 09:03:22;;;;;;;46.80;23.90;;;;;-1.80;97589.80;;;;111777;1242;41599;-58
2022/01/17 09:05:52;;;;;;;49.00;23.00;;;;;-1.74;97587.20;;;;111515;1244;41626;-58
2022/01/17 09:08:22;;;;;;;51.50;24.20;;;;;-1.72;97601.20;;;;111806;1241;41602;-58
2022/01/17 09:10:55;;;;;;;49.60;21.30;;;;;-1.70;97606.60;;;;111807;1241;41904;-58
2022/01/17 09:13:25;;;;;;;43.60;20.00;;;;;-1.70;97603.80;;;;111649;1242;41147;-57
2022/01/17 09:15:54;;;;;;;46.70;20.70;;;;;-1.62;97582.20;;;;111688;1243;41144;-59
2022/01/17 09:18:24;;;;;;;48.30;22.80;;;;;-1.60;97587.60;;;;111731;1241;41134;-60
2022/01/17 09:20:54;;;;;;;46.10;22.50;;;;;-1.56;97585.20;;;;111653;1241;41157;-60
2022/01/17 09:23:23;;;;;;;49.30;22.10;;;;;-1.50;97575.00;;;;111708;1241;41634;-59
2022/01/17 09:25:52;;;;;;;43.70;20.90;;;;;-1.50;97569.00;;;;111458;1244;42304;-60
2022/01/17 09:28:23;;;;;;;46.20;21.30;;;;;-1.60;97553.60;;;;111816;1241;41139;-58
2022/01/17 09:30:52;;;;;;;49.20;22.00;;;;;-1.60;97552.00;;;;111785;1243;41105;-59
2022/01/17 09:33:21;;;;;;;43.10;21.10;;;;;-1.60;97549.60;;;;111535;1243;42079;-61
2022/01/17 09:35:51;;;;;;;42.00;19.80;;;;;-1.50;97554.80;;;;111744;1241;41150;-59
2022/01/17 09:38:20;;;;;;;48.00;21.10;;;;;-1.50;97546.80;;;;111550;1242;41601;-59
2022/01/17 09:40:50;;;;;;;43.80;20.20;;;;;-1.40;97545.40;;;;111510;1244;41616;-58
2022/01/17 09:43:37;;;;;;;43.50;21.00;;;;;-1.30;97546.20;;;;111757;1242;41603;-58
2022/01/17 09:46:07;;;;;;;39.40;19.10;;;;;-1.20;97543.40;;;;111506;1244;41121;-58
2022/01/17 09:48:39;;;;;;;40.50;19.00;;;;;-1.20;97539.40;;;;111802;1243;41150;-58
2022/01/17 09:54:04;;;;;;;38.80;17.90;;;;;-1.06;97553.00;;;;111427;1242;41337;-58
2022/01/17 09:56:33;;;;;;;43.70;19.10;;;;;-1.00;97537.60;;;;111703;1243;42422;-61
2022/01/17 09:59:02;;;;;;;41.60;19.10;;;;;-0.90;97536.60;;;;111739;1242;41160;-59
2022/01/17 10:01:32;;;;;;;46.30;19.60;;;;;-0.90;97528.80;;;;111376;1243;41933;-58
2022/01/17 10:04:06;;;;;;;36.10;17.50;;;;;-0.80;97522.40;;;;111794;1241;41363;-58
2022/01/17 10:06:39;;;;;;;39.40;18.70;;;;;-0.70;97516.20;;;;111817;1243;41343;-58
2022/01/17 10:09:24;;;;;;;46.10;19.50;;;;;-0.60;97516.00;;;;111816;1243;41152;-59
2022/01/17 10:12:14;;;;;;;43.00;19.00;;;;;-0.50;97504.60;;;;111716;1242;42523;-58
2022/01/17 10:15:03;;;;;;;41.80;18.90;;;;;-0.40;97503.80;;;;111511;1244;41148;-59
2022/01/17 10:17:56;;;;;;;39.70;19.20;;;;;-0.34;97496.00;;;;111456;1241;42369;-59
2022/01/17 10:20:31;;;;;;;44.10;20.30;;;;;-0.30;97487.40;;;;111771;1241;42186;-59
2022/01/17 10:23:29;;;;;;;43.50;21.50;;;;;-0.30;97483.60;;;;111677;1244;41282;-58
2022/01/17 10:26:06;;;;;;;49.00;23.30;;;;;-0.30;97476.60;;;;111720;1242;41121;-61
2022/01/17 10:29:00;;;;;;;55.80;25.80;;;;;-0.30;97476.40;;;;111727;1241;41718;-61
2022/01/17 10:37:12;;;;;;;50.00;24.10;;;;;-0.30;97450.60;;;;111593;1244;41790;-61
2022/01/17 10:40:05;;;;;;;49.20;23.60;;;;;-0.30;97441.80;;;;111747;1243;42735;-59
2022/01/17 10:42:41;;;;;;;48.00;22.90;;;;;-0.40;97428.20;;;;111801;1241;41150;-59
2022/01/17 10:45:22;;;;;;;47.00;22.30;;;;;-0.40;97422.80;;;;111671;1241;41373;-59
2022/01/17 10:47:52;;;;;;;;;;;;;-0.30;97407.00;;;;111820;1241;41890;-58
2022/01/17 10:50:48;;;;;;;41.40;19.80;;;;;-0.30;97404.60;;;;111812;1241;42436;-58
2022/01/17 10:53:18;;;;;;;37.70;18.30;;;;;-0.30;97407.60;;;;111667;1243;41262;-60
2022/01/17 10:55:52;;;;;;;41.70;19.00;;;;;-0.30;97389.20;;;;111820;1242;41145;-61
2022/01/17 10:58:29;;;;;;;40.90;18.20;;;;;-0.30;97379.20;;;;111699;1241;41120;-61
2022/01/17 11:01:01;;;;;;;44.60;21.10;;;;;-0.30;97371.60;;;;111664;1243;41264;-59
2022/01/17 11:03:33;;;;;;;43.90;18.60;;;;;-0.30;97358.20;;;;111862;1241;41431;-58
2022/01/17 11:06:05;;;;;;;40.40;19.60;;;;;-0.30;97348.00;;;;111849;1241;41118;-57
2022/01/17 11:08:34;;;;;;;43.60;19.70;;;;;-0.30;97346.60;;;;111810;1241;41719;-58
2022/01/17 11:11:07;;;;;;;39.10;18.00;;;;;-0.28;97337.20;;;;111672;1243;41260;-60
2022/01/17 11:13:38;;;;;;;40.80;17.80;;;;;-0.20;97327.80;;;;111511;1244;42139;-58
2022/01/17 11:16:11;;;;;;;41.90;18.80;;;;;-0.20;97324.80;;;;111832;1241;41716;-60
2022/01/17 11:18:44;;;;;;;39.90;19.50;;;;;-0.14;97322.20;;;;111708;1243;42522;-58
2022/01/17 11:21:16;;;;;;;45.70;20.40;;;;;-0.10;97319.00;;;;111679;1241;41144;-59
2022/01/17 11:23:48;;;;;;;55.50;22.60;;;;;-0.10;97304.40;;;;111882;1241;41119;-60
2022/01/17 11:26:18;;;;;;;58.60;24.60;;;;;-0.02;97296.40;;;;111663;1241;41245;-60
2022/01/17 11:28:53;;;;;;;49.50;21.20;;;;;0.00;97288.40;;;;111802;1241;42114;-60
2022/01/17 11:31:24;;;;;;;44.50;20.30;;;;;0.00;97296.40;;;;111816;1241;41123;-60
2022/01/17 11:33:53;;;;;;;36.70;17.40;;;;;0.00;97291.80;;;;111739;1242;41995;-58
2022/01/17 11:36:22;;;;;;;42.10;18.50;;;;;0.00;97278.80;;;;111795;1241;42860;-58
2022/01/17 11:38:55;;;;;;;41.20;18.40;;;;;-0.02;97276.20;;;;111797;1243;42056;-59
2022/01/17 11:41:27;;;;;;;39.40;18.80;;;;;-0.10;97269.80;;;;111797;1241;41147;-59
2022/01/17 11:44:04;;;;;;;41.80;18.30;;;;;-0.04;97256.20;;;;111669;1243;41316;-59
2022/01/17 11:46:45;;;;;;;44.20;19.50;;;;;0.00;97247.40;;;;111786;1242;42388;-58
2022/01/17 11:49:24;;;;;;;35.10;18.60;;;;;0.10;97242.60;;;;111836;1241;41142;-58
2022/01/17 11:51:53;;;;;;;43.30;20.40;;;;;0.10;97234.80;;;;111679;1241;41720;-58
2022/01/17 11:54:26;;;;;;;46.90;21.80;;;;;0.18;97225.60;;;;111751;1243;41305;-58
2022/01/17 11:57:03;;;;;;;44.00;21.10;;;;;0.22;97229.40;;;;111771;1241;41862;-59
2022/01/17 11:59:46;;;;;;;45.70;21.60;;;;;0.30;97237.80;;;;111774;1241;42665;-58
2022/01/17 12:02:30;;;;;;;47.40;22.00;;;;;0.40;97250.20;;;;111829;1241;41958;-58
2022/01/17 12:05:10;;;;;;;49.10;22.60;;;;;0.50;97252.40;;;;111826;1240;41145;-61
2022/01/17 12:07:54;;;;;;;43.80;21.10;;;;;0.50;97236.40;;;;111808;1241;41155;-60
2022/01/17 12:10:26;;;;;;;53.50;23.40;;;;;0.60;97212.80;;;;111786;1241;41213;-58
2022/01/17 12:13:12;;;;;;;47.10;21.70;;;;;0.62;97208.40;;;;111742;1242;41156;-58
2022/01/17 12:16:05;;;;;;;48.40;21.90;;;;;0.70;97203.00;;;;111842;1241;41952;-58
2022/01/17 12:18:59;;;;;;;43.40;20.50;;;;;0.70;97206.20;;;;111838;1241;41123;-60
2022/01/17 12:21:35;;;;;;;44.90;20.00;;;;;0.78;97203.20;;;;111726;1241;41124;-58
2022/01/17 12:24:19;;;;;;;41.90;19.30;;;;;0.80;97200.20;;;;111756;1242;42355;-58
2022/01/17 12:27:03;;;;;;;45.10;19.30;;;;;0.80;97192.00;;;;111807;1241;41213;-58
2022/01/17 12:29:55;;;;;;;41.00;19.00;;;;;0.80;97187.40;;;;111843;1241;41137;-58
2022/01/17 12:32:24;;;;;;;47.40;22.00;;;;;0.80;97184.00;;;;111642;1241;41967;-58
2022/01/17 12:34:59;;;;;;;51.30;21.90;;;;;0.80;97190.20;;;;111819;1242;41240;-61
2022/01/17 12:37:45;;;;;;;54.40;22.90;;;;;0.84;97187.60;;;;111708;1241;41736;-58
2022/01/17 12:40:21;;;;;;;44.50;20.30;;;;;0.90;97177.80;;;;111674;1241;41207;-58
2022/01/17 12:43:09;;;;;;;43.50;19.70;;;;;0.82;97171.20;;;;111615;1242;41130;-60
2022/01/17 12:45:47;;;;;;;42.20;20.10;;;;;0.80;97169.40;;;;111817;1241;41482;-60